Time;durP1;ratioP1;P1;durP2;ratioP2;P2;SDS_P1;SDS_P2;PMS_P1;PMS_P2;Temp;Humidity;BMP_temperature;BMP_pressure;BME280_temperature;BME280_humidity;BME280_pressure;Samples;Min_cycle;Max_cycle;Signal;HPM_P1;HPM_P2
2022/10/04 00:02:47;;;;;;;12.27;7.95;;;;;;;9.26;77.02;101235.94;10106641;29;20448;-79
2022/10/04 00:07:55;;;;;;;16.67;8.35;;;;;;;9.16;77.55;101222.25;10096079;29;20061;-79
2022/10/04 00:13:02;;;;;;;17.85;8.38;;;;;;;9.23;77.70;101245.03;10105823;29;20041;-79
2022/10/04 00:18:19;;;;;;;11.45;7.93;;;;;;;9.20;78.07;101234.50;10105010;29;20106;-79
2022/10/04 00:23:29;;;;;;;21.48;8.85;;;;;;;9.25;77.83;101237.75;10101038;29;20121;-78
2022/10/04 00:28:44;;;;;;;16.83;8.63;;;;;;;9.25;77.83;101244.94;10105446;29;20045;-78
2022/10/04 00:33:50;;;;;;;16.52;7.95;;;;;;;9.20;77.86;101231.81;10115372;29;20083;-78
2022/10/04 00:39:14;;;;;;;16.88;7.43;;;;;;;9.25;77.88;101235.06;10116110;29;20403;-78
2022/10/04 00:44:24;;;;;;;17.17;7.15;;;;;;;9.25;77.75;101229.72;10127731;29;20053;-77
2022/10/04 00:49:32;;;;;;;11.68;7.13;;;;;;;9.21;77.76;101230.00;10147218;29;20056;-78
2022/10/04 00:54:41;;;;;;;20.33;7.40;;;;;;;9.20;77.75;101206.84;10119853;29;20522;-78
2022/10/04 00:59:48;;;;;;;13.15;7.95;;;;;;;9.22;77.88;101207.59;10082324;29;20154;-78
2022/10/04 01:04:56;;;;;;;11.13;7.00;;;;;;;9.26;77.63;101209.97;10105163;29;20075;-78
2022/10/04 01:10:05;;;;;;;14.45;7.90;;;;;;;9.28;77.70;101200.03;10104991;29;20084;-78
2022/10/04 01:15:16;;;;;;;12.45;6.70;;;;;;;9.29;77.59;101199.06;10093249;29;20045;-78
2022/10/04 01:20:32;;;;;;;12.02;8.25;;;;;;;9.38;77.47;101202.13;10104085;29;20137;-78
2022/10/04 01:25:46;;;;;;;11.32;7.63;;;;;;;9.31;77.29;101187.41;10110582;29;20044;-78
2022/10/04 01:30:49;;;;;;;13.60;7.53;;;;;;;9.21;77.56;101185.28;10107262;29;20048;-78
2022/10/04 01:35:52;;;;;;;16.50;7.78;;;;;;;9.22;77.53;101181.66;10112940;29;20061;-78
2022/10/04 01:40:59;;;;;;;15.10;7.55;;;;;;;9.26;77.39;101187.69;10104796;29;20041;-77
2022/10/04 01:46:08;;;;;;;13.27;7.05;;;;;;;9.24;77.61;101176.19;10083967;29;20072;-78
2022/10/04 01:51:18;;;;;;;12.35;6.75;;;;;;;9.30;77.18;101170.44;10100176;29;20052;-78
2022/10/04 01:56:26;;;;;;;10.82;7.28;;;;;;;9.33;77.28;101177.44;10081656;29;20143;-78
2022/10/04 02:01:34;;;;;;;18.90;7.60;;;;;;;9.37;77.13;101160.19;10096765;29;20071;-78
2022/10/04 02:06:40;;;;;;;18.25;7.53;;;;;;;9.36;77.21;101150.44;10099456;29;20049;-78
2022/10/04 02:11:49;;;;;;;19.52;7.22;;;;;;;9.35;76.83;101162.97;10088334;29;20467;-78
2022/10/04 02:16:53;;;;;;;18.20;7.45;;;;;;;9.26;77.02;101153.69;10100358;29;20048;-78
2022/10/04 02:21:57;;;;;;;14.35;6.97;;;;;;;9.31;77.30;101147.19;10099317;29;20112;-78
2022/10/04 02:27:01;;;;;;;11.45;6.80;;;;;;;9.29;77.06;101144.59;10099012;29;20049;-78
2022/10/04 02:37:28;;;;;;;14.40;6.93;;;;;;;9.43;77.28;101125.78;10099107;29;20080;-78
2022/10/04 02:42:40;;;;;;;12.15;6.65;;;;;;;9.42;76.81;101124.06;10099136;29;20049;-78
2022/10/04 02:47:46;;;;;;;11.48;6.13;;;;;;;9.32;77.06;101125.63;10111102;29;20041;-77
2022/10/04 02:52:55;;;;;;;16.08;6.80;;;;;;;9.29;77.15;101133.84;10111075;29;20102;-78
2022/10/04 02:58:00;;;;;;;14.80;7.53;;;;;;;9.32;77.11;101130.13;10124400;23;20428;-75
2022/10/04 03:03:15;;;;;;;10.98;5.60;;;;;;;9.27;76.99;101125.94;10112073;29;20049;-75
2022/10/04 03:08:18;;;;;;;10.10;5.70;;;;;;;9.23;76.94;101119.03;10117952;29;20064;-76
2022/10/04 03:13:23;;;;;;;12.93;6.68;;;;;;;9.16;77.40;101122.19;10098906;29;20132;-76
2022/10/04 03:18:26;;;;;;;9.05;5.60;;;;;;;9.21;77.53;101117.41;10102930;29;20119;-76
2022/10/04 03:23:31;;;;;;;11.02;6.20;;;;;;;9.28;77.37;101114.22;10094765;29;20105;-76
2022/10/04 03:28:37;;;;;;;12.23;6.53;;;;;;;9.22;77.24;101095.00;10099378;29;20057;-76
2022/10/04 03:33:42;;;;;;;10.07;6.00;;;;;;;9.20;77.31;101103.13;10121426;29;20092;-76
2022/10/04 03:38:48;;;;;;;10.02;6.07;;;;;;;9.19;77.21;101090.72;10116818;29;20045;-76
2022/10/04 03:43:55;;;;;;;10.93;5.72;;;;;;;9.21;77.17;101101.31;10110791;29;20048;-75
2022/10/04 03:48:59;;;;;;;21.35;7.40;;;;;;;9.25;77.37;101089.44;10115672;29;20418;-76
2022/10/04 03:54:05;;;;;;;10.80;6.60;;;;;;;9.26;77.13;101083.97;10114953;29;20866;-76
2022/10/04 03:59:16;;;;;;;10.98;6.13;;;;;;;9.22;77.21;101079.78;10117808;29;20047;-76
2022/10/04 04:04:24;;;;;;;11.20;5.88;;;;;;;9.22;77.24;101082.47;10102046;29;20049;-76
2022/10/04 04:09:39;;;;;;;13.10;6.45;;;;;;;9.27;77.12;101091.06;10095812;29;20041;-75
2022/10/04 04:14:46;;;;;;;12.50;6.50;;;;;;;9.28;77.23;101091.94;10121282;29;20055;-75
2022/10/04 04:19:49;;;;;;;13.75;6.70;;;;;;;9.24;77.25;101082.34;10102109;29;20160;-76
2022/10/04 04:24:52;;;;;;;14.82;6.82;;;;;;;9.25;77.49;101073.38;10117728;29;20108;-76
2022/10/04 04:30:00;;;;;;;11.73;6.28;;;;;;;9.20;77.50;101072.78;10121326;29;20048;-76
2022/10/04 04:35:07;;;;;;;11.80;6.80;;;;;;;9.28;77.69;101078.53;10124980;29;20075;-76
2022/10/04 04:40:20;;;;;;;15.77;6.05;;;;;;;9.30;77.57;101068.56;10130522;29;20119;-76
2022/10/04 04:45:28;;;;;;;9.52;5.68;;;;;;;9.27;77.41;101079.50;10127385;29;20410;-76
2022/10/04 04:50:34;;;;;;;12.90;6.40;;;;;;;9.28;77.37;101082.06;10101534;29;20052;-76
2022/10/04 04:55:41;;;;;;;20.63;6.80;;;;;;;9.26;77.37;101083.13;10106440;29;20053;-76
2022/10/04 05:01:17;;;;;;;10.65;6.70;;;;;;;9.21;77.45;101082.53;10123743;29;20118;-76
2022/10/04 05:06:25;;;;;;;16.88;7.43;;;;;;;9.18;77.85;101077.38;10117434;29;20048;-76
2022/10/04 05:11:31;;;;;;;12.35;7.00;;;;;;;9.16;78.01;101074.81;10116974;29;20063;-76
2022/10/04 05:16:41;;;;;;;11.80;7.47;;;;;;;9.15;77.94;101067.72;10108912;29;20120;-76
2022/10/04 05:21:46;;;;;;;11.35;7.93;;;;;;;9.15;77.96;101072.22;10101818;29;20414;-76
2022/10/04 05:26:53;;;;;;;13.35;7.63;;;;;;;9.09;78.10;101076.16;10131936;29;20410;-77
2022/10/04 05:32:08;;;;;;;15.65;7.75;;;;;;;8.96;78.53;101077.91;10134107;29;20135;-75
2022/10/04 05:37:34;;;;;;;14.50;7.22;;;;;;;8.98;78.58;101070.63;10123901;29;20053;-75
2022/10/04 05:42:40;;;;;;;17.42;7.47;;;;;;;8.95;78.83;101070.81;10105823;29;20517;-76
2022/10/04 05:47:46;;;;;;;10.73;7.25;;;;;;;8.98;78.66;101062.59;10112865;29;20093;-76
2022/10/04 05:52:51;;;;;;;12.88;7.82;;;;;;;8.98;78.75;101066.13;10117658;29;20500;-76
2022/10/04 05:58:24;;;;;;;13.90;8.20;;;;;;;8.95;78.73;101068.16;10110514;29;20067;-75
2022/10/04 06:03:39;;;;;;;9.00;7.40;;;;;;;9.01;78.58;101068.59;10103511;29;20586;-76
2022/10/04 06:08:51;;;;;;;14.40;9.07;;;;;;;8.99;78.36;101069.66;10109690;29;20044;-76
2022/10/04 06:14:12;;;;;;;4.25;2.97;;;;;;;9.12;78.56;101073.28;10120577;29;20072;-77
2022/10/04 06:19:33;;;;;;;8.98;4.13;;;;;;;9.57;78.58;101084.69;10105157;29;20121;-76
2022/10/04 06:24:39;;;;;;;8.85;4.07;;;;;;;9.99;76.94;101090.00;10111975;29;20041;-77
2022/10/04 06:29:47;;;;;;;7.05;3.45;;;;;;;10.19;75.55;101084.13;10119479;29;20045;-76
2022/10/04 06:35:15;;;;;;;11.32;4.38;;;;;;;10.22;74.45;101086.59;10131768;29;20052;-77
2022/10/04 06:40:44;;;;;;;10.35;5.50;;;;;;;10.24;74.12;101068.56;10131828;29;20450;-77
2022/10/04 06:46:01;;;;;;;10.45;5.70;;;;;;;10.20;73.72;101060.81;10107947;29;20091;-77
2022/10/04 06:51:14;;;;;;;16.63;6.05;;;;;;;10.27;74.29;101067.50;10099289;29;20041;-77
2022/10/04 06:56:44;;;;;;;11.57;5.22;;;;;;;10.53;73.28;101057.59;10085163;29;20056;-76
2022/10/04 07:01:50;;;;;;;16.92;4.97;;;;;;;10.57;73.19;101062.66;10103771;29;20123;-77
2022/10/04 07:07:33;;;;;;;14.90;6.53;;;;;;;10.55;73.10;101061.91;10118668;29;20645;-77
2022/10/04 07:12:39;;;;;;;;;;;;;;;10.43;73.10;101070.00;10109753;29;20132;-77
2022/10/04 07:17:45;;;;;;;16.35;7.10;;;;;;;10.64;73.69;101065.81;10126006;29;19928;-76
2022/10/04 07:22:56;;;;;;;11.90;5.30;;;;;;;11.70;71.36;101068.88;10140616;29;20144;-77
2022/10/04 07:33:29;;;;;;;17.52;6.82;;;;;;;12.28;67.85;101071.66;10100606;29;20108;-77
2022/10/04 07:38:39;;;;;;;15.73;7.10;;;;;;;12.22;68.29;101072.97;10092085;29;20120;-76
2022/10/04 07:43:50;;;;;;;14.55;7.25;;;;;;;12.00;68.53;101084.53;10098682;29;20403;-77
2022/10/04 07:48:53;;;;;;;18.35;7.50;;;;;;;11.65;70.02;101081.81;10114131;29;20041;-77
2022/10/04 07:54:03;;;;;;;16.02;7.55;;;;;;;11.59;70.25;101083.13;10121349;29;20275;-77
2022/10/04 07:59:35;;;;;;;8.73;7.13;;;;;;;11.57;71.02;101074.28;10117737;29;20051;-77
2022/10/04 08:04:46;;;;;;;17.88;8.50;;;;;;;11.90;71.19;101081.69;10119616;29;20104;-77
2022/10/04 08:10:01;;;;;;;14.10;7.80;;;;;;;12.70;68.65;101078.25;10111992;29;20123;-77
2022/10/04 08:15:27;;;;;;;11.63;7.53;;;;;;;13.19;66.34;101090.50;10100107;29;20120;-77
2022/10/04 08:20:39;;;;;;;11.18;6.80;;;;;;;13.61;65.19;101081.75;10098038;29;20041;-77
2022/10/04 08:25:54;;;;;;;10.80;7.20;;;;;;;14.01;63.95;101083.78;10103343;29;20045;-77
2022/10/04 08:31:08;;;;;;;9.13;6.57;;;;;;;14.65;62.68;101070.19;10122845;29;20391;-77
2022/10/04 08:36:25;;;;;;;13.27;6.85;;;;;;;14.60;62.13;101084.09;10116152;29;20052;-77
2022/10/04 08:42:03;;;;;;;12.88;6.40;;;;;;;15.03;61.92;101076.78;10122333;29;20083;-77
2022/10/04 08:47:39;;;;;;;8.77;6.20;;;;;;;15.51;60.39;101064.38;10123247;29;20573;-77
2022/10/04 08:53:01;;;;;;;11.15;5.68;;;;;;;16.10;59.55;101055.28;10085962;29;20064;-77
2022/10/04 08:58:16;;;;;;;7.10;4.60;;;;;;;16.35;56.23;101053.84;10100189;29;20128;-77
2022/10/04 09:03:52;;;;;;;7.07;4.15;;;;;;;16.67;55.40;101044.47;10124370;29;20056;-77
2022/10/04 09:09:33;;;;;;;11.68;4.70;;;;;;;16.62;56.93;101039.50;10128831;29;20060;-77
2022/10/04 09:15:10;;;;;;;12.15;3.95;;;;;;;16.90;54.94;101039.53;10107998;29;20091;-77
2022/10/04 09:20:22;;;;;;;8.38;2.20;;;;;;;15.84;54.24;101052.28;10114714;29;20499;-77
2022/10/04 09:25:55;;;;;;;5.13;2.17;;;;;;;16.04;54.34;101034.16;10116186;29;20056;-77
2022/10/04 09:31:22;;;;;;;5.80;2.65;;;;;;;15.51;54.11;101040.88;10121172;29;20473;-77
2022/10/04 09:36:51;;;;;;;6.15;2.45;;;;;;;16.19;52.46;101024.59;10127169;29;20080;-77
2022/10/04 09:42:29;;;;;;;6.80;1.80;;;;;;;17.22;50.78;101014.66;10133753;29;20500;-77
2022/10/04 09:47:44;;;;;;;5.55;2.00;;;;;;;16.92;49.88;101015.78;10092938;29;20057;-77
2022/10/04 09:52:57;;;;;;;6.15;2.42;;;;;;;16.90;50.60;101007.81;10108034;29;20087;-77
2022/10/04 09:58:36;;;;;;;9.85;2.83;;;;;;;16.96;50.82;100998.22;10112067;29;20148;-77
2022/10/04 10:04:04;;;;;;;4.90;1.90;;;;;;;17.20;49.93;100984.13;10116523;29;20063;-77
2022/10/04 10:09:19;;;;;;;6.78;1.83;;;;;;;17.52;49.35;100978.13;10121708;29;20065;-78
2022/10/04 10:15:08;;;;;;;8.57;1.95;;;;;;;17.98;49.26;100975.34;10115533;29;20057;-77
2022/10/04 10:20:47;;;;;;;11.65;2.10;;;;;;;17.97;46.48;100969.06;10113451;29;20131;-78
2022/10/04 10:26:10;;;;;;;11.43;1.98;;;;;;;17.69;47.03;100968.31;10104267;29;20434;-78
2022/10/04 10:31:31;;;;;;;7.65;2.20;;;;;;;17.82;46.57;100981.47;10103704;29;20387;-78
2022/10/04 10:36:46;;;;;;;5.63;2.15;;;;;;;17.81;48.25;100974.34;10112620;29;20064;-77
2022/10/04 10:42:08;;;;;;;4.22;1.60;;;;;;;18.51;44.82;100961.56;10119809;29;20045;-77
2022/10/04 10:47:28;;;;;;;10.23;3.65;;;;;;;19.30;42.86;100962.19;10122889;29;20108;-78
2022/10/04 10:53:04;;;;;;;5.65;2.08;;;;;;;18.95;44.59;100964.16;10096939;29;20147;-78
2022/10/04 10:58:44;;;;;;;9.73;2.20;;;;;;;21.05;42.43;100952.56;10058600;29;20298;-78
2022/10/04 11:04:26;;;;;;;8.20;2.65;;;;;;;20.47;41.64;100963.72;10098432;29;20052;-78
2022/10/04 11:09:34;;;;;;;6.77;2.10;;;;;;;20.90;41.69;100950.56;10075630;29;20056;-78
2022/10/04 11:15:15;;;;;;;5.40;2.20;;;;;;;21.73;40.92;100943.53;10073530;29;21206;-78
2022/10/04 11:20:48;;;;;;;6.53;2.47;;;;;;;20.78;40.49;100944.63;10077579;29;20059;-78
2022/10/04 11:26:28;;;;;;;4.07;2.03;;;;;;;21.15;41.27;100937.66;10081289;29;20048;-78
2022/10/04 11:32:08;;;;;;;11.43;2.50;;;;;;;20.99;40.71;100935.00;10080964;29;20052;-78
2022/10/04 11:37:22;;;;;;;7.32;3.13;;;;;;;21.43;39.72;100934.38;10072470;29;20087;-78
2022/10/04 11:42:30;;;;;;;;;;;;;;;22.03;38.80;100922.59;10095348;29;20052;-78
2022/10/04 11:47:46;;;;;;;5.43;2.60;;;;;;;21.81;38.84;100918.88;10099787;29;20288;-78
2022/10/04 11:53:28;;;;;;;5.57;2.70;;;;;;;20.99;41.59;100924.06;10063068;29;20586;-79
2022/10/04 11:58:44;;;;;;;6.30;2.78;;;;;;;21.23;41.27;100920.38;10078911;29;20056;-78
2022/10/04 12:04:21;;;;;;;5.95;2.92;;;;;;;21.70;40.13;100902.91;10067484;29;20150;-79
2022/10/04 12:09:35;;;;;;;5.03;2.40;;;;;;;20.90;41.72;100889.63;10080540;29;20057;-78
2022/10/04 12:14:56;;;;;;;8.07;2.53;;;;;;;21.43;41.33;100887.94;10085075;29;20047;-78
2022/10/04 12:20:31;;;;;;;6.72;2.60;;;;;;;21.74;42.22;100881.50;10081102;29;20682;-79
2022/10/04 12:25:59;;;;;;;6.50;2.50;;;;;;;21.65;40.97;100869.78;10041494;29;20057;-78
2022/10/04 12:31:21;;;;;;;8.95;3.38;;;;;;;21.46;40.71;100857.50;10039357;29;20054;-78
2022/10/04 12:36:42;;;;;;;6.18;2.75;;;;;;;21.58;40.03;100853.28;10063700;29;20063;-78
2022/10/04 12:41:56;;;;;;;6.25;3.22;;;;;;;23.55;37.95;100831.50;10059179;29;20057;-79
2022/10/04 12:47:27;;;;;;;5.65;2.97;;;;;;;23.55;36.21;100840.56;10062074;29;20085;-78
2022/10/04 12:52:41;;;;;;;4.90;2.45;;;;;;;23.61;37.29;100837.06;10094061;29;20061;-78
2022/10/04 12:57:51;;;;;;;4.70;2.78;;;;;;;22.62;38.04;100838.78;10086426;29;21190;-79
2022/10/04 13:03:23;;;;;;;4.05;2.35;;;;;;;25.00;35.35;100825.03;10094950;29;20045;-77
2022/10/04 13:08:40;;;;;;;8.90;3.17;;;;;;;24.81;34.55;100818.47;10078857;29;20658;-79
2022/10/04 13:14:16;;;;;;;6.25;2.85;;;;;;;25.34;33.74;100809.44;10084694;29;20041;-78
2022/10/04 13:19:24;;;;;;;4.40;2.17;;;;;;;25.35;34.49;100812.00;10133082;29;20056;-77
2022/10/04 13:24:53;;;;;;;6.85;2.17;;;;;;;24.96;34.49;100821.03;10079033;29;20522;-79
2022/10/04 13:30:05;;;;;;;4.57;2.17;;;;;;;24.67;33.88;100805.75;10087164;29;20045;-79
2022/10/04 13:35:17;;;;;;;2.53;1.83;;;;;;;24.31;35.02;100790.41;10085741;29;20054;-79
2022/10/04 13:40:40;;;;;;;3.78;2.13;;;;;;;25.39;32.80;100780.25;10094370;29;20053;-77
2022/10/04 13:46:05;;;;;;;7.00;2.53;;;;;;;25.03;33.46;100780.69;10114631;29;20043;-79
2022/10/04 13:51:34;;;;;;;5.45;2.40;;;;;;;24.97;33.32;100760.34;10111096;29;20726;-78
2022/10/04 13:57:05;;;;;;;4.28;2.08;;;;;;;25.79;33.47;100758.22;10106098;29;20414;-79
2022/10/04 14:02:37;;;;;;;4.78;2.30;;;;;;;26.12;32.02;100749.00;10109597;29;20119;-79
2022/10/04 14:08:08;;;;;;;4.32;1.77;;;;;;;25.62;32.00;100748.72;10119165;29;20492;-80
2022/10/04 14:13:37;;;;;;;5.50;2.17;;;;;;;23.26;34.84;100753.03;10123474;29;20116;-79
2022/10/04 14:19:17;;;;;;;5.35;1.80;;;;;;;22.60;36.00;100756.88;10124807;29;20064;-80
2022/10/04 14:25:04;;;;;;;4.05;2.60;;;;;;;23.62;35.04;100741.91;10122668;29;20080;-79
2022/10/04 14:30:17;;;;;;;4.50;1.95;;;;;;;24.35;34.56;100745.00;10115747;29;20506;-78
2022/10/04 14:35:26;;;;;;;4.00;1.92;;;;;;;23.94;34.46;100745.91;10106712;29;20051;-78
2022/10/04 14:40:49;;;;;;;5.65;2.55;;;;;;;24.08;34.92;100747.66;10097828;29;20053;-80
2022/10/04 14:46:13;;;;;;;2.78;2.03;;;;;;;24.60;34.17;100747.19;10106903;29;20080;-78
2022/10/04 14:51:35;;;;;;;4.15;1.65;;;;;;;21.83;37.18;100744.56;10110714;29;20045;-78
2022/10/04 14:56:51;;;;;;;3.08;1.92;;;;;;;20.46;40.38;100745.59;10116873;29;20065;-77
2022/10/04 15:02:33;;;;;;;5.75;2.13;;;;;;;20.35;39.97;100749.59;10137209;23;20044;-79
2022/10/04 15:07:41;;;;;;;4.90;1.83;;;;;;;21.16;38.92;100739.09;10086424;29;20091;-79
2022/10/04 15:13:02;;;;;;;3.72;2.60;;;;;;;20.09;40.45;100741.69;10110163;29;20045;-78
2022/10/04 15:18:29;;;;;;;4.80;2.33;;;;;;;19.68;41.55;100725.50;10104504;29;20495;-78
2022/10/04 15:23:39;;;;;;;7.18;2.72;;;;;;;20.19;41.67;100708.75;10090087;29;20121;-78
2022/10/04 15:28:58;;;;;;;3.15;2.08;;;;;;;19.86;42.35;100701.59;10098520;29;20154;-79
2022/10/04 15:34:13;;;;;;;2.45;2.03;;;;;;;20.06;41.72;100710.19;10104556;29;20072;-79
2022/10/04 15:39:49;;;;;;;4.43;2.30;;;;;;;20.98;41.68;100709.34;10105410;29;20060;-79
2022/10/04 15:45:19;;;;;;;3.60;2.00;;;;;;;20.39;41.07;100717.34;10101359;29;20056;-78
2022/10/04 15:50:29;;;;;;;4.13;1.98;;;;;;;19.60;42.65;100710.03;10114040;29;20045;-79
2022/10/04 15:55:57;;;;;;;3.50;2.30;;;;;;;18.79;44.44;100716.47;10110207;29;20511;-79
2022/10/04 16:01:19;;;;;;;3.28;2.00;;;;;;;18.99;nan;100725.97;10121878;29;20132;-78
2022/10/04 16:06:25;;;;;;;2.40;1.92;;;;;;;19.05;44.37;100724.44;10113760;29;20049;-79
2022/10/04 16:11:39;;;;;;;3.33;2.00;;;;;;;19.01;44.41;100717.63;10123717;29;20055;-79
2022/10/04 16:17:12;;;;;;;5.80;2.13;;;;;;;18.72;44.81;100718.97;10122756;29;20091;-79
2022/10/04 16:22:18;;;;;;;3.50;2.15;;;;;;;18.34;45.56;100720.44;10125580;29;20051;-78
2022/10/04 16:27:42;;;;;;;6.72;2.75;;;;;;;17.86;46.82;100714.69;10133218;29;20079;-79
2022/10/04 16:33:03;;;;;;;4.28;2.42;;;;;;;17.61;47.27;100727.31;10120726;29;20056;-79
2022/10/04 16:38:21;;;;;;;3.75;2.42;;;;;;;17.43;47.86;100719.22;10103575;29;20053;-79
2022/10/04 16:43:28;;;;;;;6.43;5.72;;;;;;;17.17;50.64;100721.97;10105322;29;20112;-79
2022/10/04 16:48:38;;;;;;;5.97;3.88;;;;;;;16.97;49.99;100717.69;10126994;29;20049;-78
2022/10/04 16:53:49;;;;;;;9.38;3.22;;;;;;;16.90;49.83;100709.34;10122788;29;20128;-80
2022/10/04 16:58:59;;;;;;;4.72;2.85;;;;;;;16.77;50.11;100706.19;10122342;29;20069;-79
2022/10/04 17:04:15;;;;;;;5.10;2.97;;;;;;;16.62;50.94;100721.31;10114297;29;20053;-78
2022/10/04 17:09:27;;;;;;;8.68;3.17;;;;;;;16.45;51.38;100713.00;10093856;29;20053;-79
2022/10/04 17:15:00;;;;;;;7.17;3.47;;;;;;;16.34;51.78;100710.53;10126359;29;20422;-78
2022/10/04 17:20:12;;;;;;;5.80;3.42;;;;;;;16.30;51.89;100722.72;10123294;29;20486;-77
2022/10/04 17:25:29;;;;;;;7.00;3.53;;;;;;;16.19;52.09;100718.31;10127911;29;20096;-77
2022/10/04 17:30:47;;;;;;;6.00;3.80;;;;;;;16.14;52.45;100724.19;10102620;29;20478;-78
2022/10/04 17:36:13;;;;;;;8.55;4.45;;;;;;;16.03;52.82;100720.84;10104958;29;20097;-78
2022/10/04 17:41:23;;;;;;;8.68;4.03;;;;;;;15.88;53.65;100715.09;10076399;29;20057;-78
2022/10/04 17:46:39;;;;;;;7.43;3.65;;;;;;;15.77;54.02;100715.28;10127005;29;20124;-77
2022/10/04 17:57:21;;;;;;;8.40;3.97;;;;;;;15.56;54.56;100713.69;10116760;29;20550;-77
2022/10/04 18:02:34;;;;;;;9.48;3.55;;;;;;;15.40;54.93;100711.59;10096624;29;20124;-77
2022/10/04 18:07:43;;;;;;;6.85;3.08;;;;;;;15.32;55.42;100713.31;10107010;29;20049;-77
2022/10/04 18:12:50;;;;;;;7.85;3.63;;;;;;;15.20;55.63;100716.19;10100397;29;20037;-78
2022/10/04 18:18:15;;;;;;;7.90;2.92;;;;;;;15.17;55.75;100734.56;10113674;29;20425;-77
2022/10/04 18:23:24;;;;;;;7.65;3.08;;;;;;;15.20;55.86;100724.31;10105060;29;20045;-77
2022/10/04 18:28:27;;;;;;;9.35;3.78;;;;;;;15.21;55.49;100720.59;10099015;29;20125;-76
2022/10/04 18:33:48;;;;;;;6.05;3.42;;;;;;;15.19;55.45;100730.72;10106399;29;20491;-77
2022/10/04 18:39:20;;;;;;;6.63;3.60;;;;;;;15.13;55.25;100722.31;10100566;29;20066;-77
2022/10/04 18:44:28;;;;;;;7.97;3.83;;;;;;;15.06;55.13;100724.78;10106340;29;20045;-76
2022/10/04 18:49:47;;;;;;;5.88;3.42;;;;;;;14.95;55.42;100725.78;10112136;29;20139;-77
2022/10/04 18:55:01;;;;;;;7.55;3.60;;;;;;;14.85;55.66;100724.94;10095716;29;20044;-76
2022/10/04 19:05:50;;;;;;;11.98;4.88;;;;;;;14.64;56.00;100726.94;10098748;29;20061;-76
2022/10/04 19:11:02;;;;;;;6.32;3.67;;;;;;;14.56;56.31;100733.94;10108305;29;20589;-76
2022/10/04 19:16:16;;;;;;;7.05;4.25;;;;;;;14.43;56.79;100732.50;10123763;29;20080;-76
2022/10/04 19:21:28;;;;;;;8.00;4.32;;;;;;;14.31;56.95;100747.94;10109596;29;20045;-75
2022/10/04 19:26:34;;;;;;;5.83;3.80;;;;;;;14.25;57.15;100749.34;10109888;29;20127;-77
2022/10/04 19:31:44;;;;;;;8.98;4.13;;;;;;;14.24;56.50;100755.75;10100218;29;20041;-77
2022/10/04 19:36:54;;;;;;;6.30;4.32;;;;;;;14.20;56.77;100754.31;10112767;29;20101;-76
2022/10/04 19:41:59;;;;;;;6.53;3.55;;;;;;;14.15;55.91;100749.34;10116207;29;20052;-77
2022/10/04 19:47:09;;;;;;;6.75;3.85;;;;;;;14.19;55.70;100746.34;10090823;29;20116;-76
2022/10/04 19:52:20;;;;;;;5.38;3.75;;;;;;;14.10;55.99;100721.03;10099997;29;20470;-76
2022/10/04 19:57:34;;;;;;;5.47;3.80;;;;;;;13.96;56.54;100732.22;10108845;29;20044;-77
2022/10/04 20:02:36;;;;;;;9.15;3.70;;;;;;;13.84;56.99;100726.91;10108343;29;20120;-77
2022/10/04 20:07:47;;;;;;;7.53;3.22;;;;;;;13.79;57.21;100729.16;10102762;29;20124;-75
2022/10/04 20:13:16;;;;;;;6.05;3.15;;;;;;;13.77;57.45;100731.19;10099757;29;20132;-76
2022/10/04 20:25:09;;;;;;;5.22;3.40;;;;;;;13.80;57.65;100717.41;10121554;29;20048;-76
2022/10/04 20:30:13;;;;;;;4.72;3.80;;;;;;;13.71;57.88;100729.88;10109660;29;20052;-77
2022/10/04 20:36:07;;;;;;;5.47;3.10;;;;;;;13.63;58.51;100732.41;10114211;29;20049;-76
2022/10/04 20:47:18;;;;;;;8.30;3.50;;;;;;;13.58;59.30;100734.66;10107460;29;20052;-77
2022/10/04 20:52:25;;;;;;;6.50;3.40;;;;;;;13.56;59.46;100727.69;10108187;29;20041;-76
2022/10/04 20:57:29;;;;;;;6.97;3.53;;;;;;;13.58;59.49;100720.31;10116550;29;20517;-76
2022/10/04 21:02:34;;;;;;;6.57;3.90;;;;;;;13.51;59.56;100706.47;10129726;23;20044;-76
2022/10/04 21:07:37;;;;;;;6.60;3.80;;;;;;;13.42;60.10;100699.22;10117997;29;20060;-75
2022/10/04 21:12:40;;;;;;;5.80;3.65;;;;;;;13.25;60.64;100697.97;10111784;29;20069;-74
2022/10/04 21:17:59;;;;;;;7.13;3.53;;;;;;;13.16;61.34;100699.59;10117025;29;20053;-75
2022/10/04 21:23:08;;;;;;;7.43;3.38;;;;;;;13.18;61.73;100705.72;10115836;29;20120;-75
2022/10/04 21:28:29;;;;;;;10.48;4.38;;;;;;;13.24;61.50;100699.78;10105145;29;20533;-76
2022/10/04 21:33:35;;;;;;;8.82;3.75;;;;;;;13.22;61.68;100687.44;10114627;29;20087;-74
2022/10/04 21:38:37;;;;;;;10.15;4.55;;;;;;;13.12;62.24;100686.53;10110630;29;20083;-74
2022/10/04 21:43:40;;;;;;;9.52;3.67;;;;;;;13.12;62.28;100673.06;10116770;29;20079;-75
2022/10/04 21:48:44;;;;;;;4.88;3.78;;;;;;;13.09;62.50;100686.81;10100407;29;20550;-75
2022/10/04 21:53:47;;;;;;;5.05;4.32;;;;;;;13.00;62.68;100697.41;10110238;29;20473;-75
2022/10/04 21:58:50;;;;;;;10.52;4.38;;;;;;;13.01;62.87;100693.72;10105920;29;20040;-74
2022/10/04 22:03:54;;;;;;;10.02;4.30;;;;;;;13.03;63.12;100707.06;10102830;29;20101;-76
2022/10/04 22:08:57;;;;;;;5.75;4.18;;;;;;;12.97;63.30;100702.19;10110677;29;20077;-75
2022/10/04 22:14:00;;;;;;;6.88;4.65;;;;;;;13.07;63.40;100696.88;10112134;29;20084;-76
2022/10/04 22:19:04;;;;;;;6.72;4.60;;;;;;;13.07;63.36;100704.97;10088535;29;20061;-74
2022/10/04 22:24:14;;;;;;;5.57;4.10;;;;;;;13.04;63.69;100704.22;10090551;29;20080;-75
2022/10/04 22:29:18;;;;;;;8.05;5.10;;;;;;;12.90;64.13;100707.25;10073789;29;20139;-76
2022/10/04 22:34:22;;;;;;;7.15;5.22;;;;;;;12.97;64.12;100724.63;10084138;29;20045;-76
2022/10/04 22:39:26;;;;;;;9.52;4.43;;;;;;;12.94;64.50;100730.25;10078583;29;20049;-76
2022/10/04 22:44:33;;;;;;;8.15;4.43;;;;;;;12.84;64.93;100713.19;10073763;29;20503;-77
2022/10/04 22:49:41;;;;;;;6.75;4.65;;;;;;;12.81;65.17;100708.06;10078452;29;20048;-76
2022/10/04 22:54:45;;;;;;;6.03;4.35;;;;;;;12.64;66.05;100693.31;10073729;29;20523;-76
2022/10/04 22:59:50;;;;;;;6.68;4.75;;;;;;;12.75;65.49;100690.56;10074102;29;20080;-74
2022/10/04 23:04:58;;;;;;;9.73;5.30;;;;;;;12.70;65.97;100686.53;10067243;29;20125;-74
2022/10/04 23:10:01;;;;;;;8.88;5.40;;;;;;;12.56;66.43;100688.59;10083366;29;20068;-76
2022/10/04 23:15:05;;;;;;;13.25;5.28;;;;;;;12.62;66.56;100689.06;10064529;29;20087;-77
2022/10/04 23:20:14;;;;;;;8.55;4.93;;;;;;;12.51;66.96;100698.88;10069721;29;20084;-76
2022/10/04 23:25:19;;;;;;;8.65;5.07;;;;;;;12.67;66.91;100692.19;10078874;29;20124;-75
2022/10/04 23:30:22;;;;;;;8.02;4.93;;;;;;;12.37;67.96;100708.13;10074926;29;20128;-76
2022/10/04 23:35:30;;;;;;;7.18;5.28;;;;;;;12.51;67.62;100700.75;10077764;29;20129;-76
2022/10/04 23:40:33;;;;;;;7.45;5.00;;;;;;;12.44;67.89;100699.53;10077917;29;20144;-76
2022/10/04 23:45:40;;;;;;;9.68;5.75;;;;;;;12.56;67.32;100699.38;10078814;29;20128;-76
2022/10/04 23:50:45;;;;;;;8.60;5.22;;;;;;;12.46;67.70;100695.72;10082191;29;20090;-76
2022/10/04 23:55:48;;;;;;;12.15;5.43;;;;;;;12.47;67.76;100697.44;10066770;29;20049;-75
